sensor_id;sensor_type;location;lat;lon;timestamp;P1;durP1;ratioP1;P2;durP2;ratioP2
18610;SDS011;9435;52.122;5.502;2022-12-18T00:01:00;87.97;;;26.40;;
18610;SDS011;9435;52.122;5.502;2022-12-18T00:03:31;95.75;;;27.90;;
18610;SDS011;9435;52.122;5.502;2022-12-18T00:05:58;93.75;;;27.58;;
18610;SDS011;9435;52.122;5.502;2022-12-18T00:08:25;97.93;;;27.42;;
18610;SDS011;9435;52.122;5.502;2022-12-18T00:10:54;85.43;;;26.17;;
18610;SDS011;9435;52.122;5.502;2022-12-18T00:13:21;94.78;;;27.92;;
18610;SDS011;9435;52.122;5.502;2022-12-18T00:15:48;91.80;;;27.00;;
18610;SDS011;9435;52.122;5.502;2022-12-18T00:18:15;86.85;;;26.98;;
18610;SDS011;9435;52.122;5.502;2022-12-18T00:20:42;91.93;;;27.48;;
18610;SDS011;9435;52.122;5.502;2022-12-18T00:23:09;95.05;;;28.00;;
18610;SDS011;9435;52.122;5.502;2022-12-18T00:25:36;98.43;;;28.48;;
18610;SDS011;9435;52.122;5.502;2022-12-18T00:28:05;98.18;;;28.88;;
18610;SDS011;9435;52.122;5.502;2022-12-18T00:30:32;84.03;;;26.75;;
18610;SDS011;9435;52.122;5.502;2022-12-18T00:32:59;93.22;;;27.95;;
18610;SDS011;9435;52.122;5.502;2022-12-18T00:35:26;98.15;;;26.98;;
18610;SDS011;9435;52.122;5.502;2022-12-18T00:37:53;92.30;;;27.70;;
18610;SDS011;9435;52.122;5.502;2022-12-18T00:40:20;85.90;;;26.83;;
18610;SDS011;9435;52.122;5.502;2022-12-18T00:42:47;92.75;;;27.25;;
18610;SDS011;9435;52.122;5.502;2022-12-18T00:45:24;88.32;;;26.33;;
18610;SDS011;9435;52.122;5.502;2022-12-18T00:47:52;101.47;;;27.92;;
18610;SDS011;9435;52.122;5.502;2022-12-18T00:50:19;93.60;;;26.35;;
18610;SDS011;9435;52.122;5.502;2022-12-18T00:52:46;87.55;;;25.92;;
18610;SDS011;9435;52.122;5.502;2022-12-18T00:55:14;97.60;;;27.95;;
18610;SDS011;9435;52.122;5.502;2022-12-18T00:57:41;101.28;;;27.50;;
18610;SDS011;9435;52.122;5.502;2022-12-18T01:00:10;94.85;;;28.55;;
18610;SDS011;9435;52.122;5.502;2022-12-18T01:02:39;95.05;;;29.33;;
18610;SDS011;9435;52.122;5.502;2022-12-18T01:05:07;93.03;;;28.15;;
18610;SDS011;9435;52.122;5.502;2022-12-18T01:07:35;104.30;;;29.65;;
18610;SDS011;9435;52.122;5.502;2022-12-18T01:10:02;98.93;;;28.92;;
18610;SDS011;9435;52.122;5.502;2022-12-18T01:12:30;106.68;;;29.95;;
18610;SDS011;9435;52.122;5.502;2022-12-18T01:14:57;100.45;;;29.65;;
18610;SDS011;9435;52.122;5.502;2022-12-18T01:17:24;98.20;;;27.63;;
18610;SDS011;9435;52.122;5.502;2022-12-18T01:19:53;98.47;;;28.63;;
18610;SDS011;9435;52.122;5.502;2022-12-18T01:22:20;109.50;;;30.35;;
18610;SDS011;9435;52.122;5.502;2022-12-18T01:24:47;99.90;;;29.08;;
18610;SDS011;9435;52.122;5.502;2022-12-18T01:27:14;98.43;;;29.35;;
18610;SDS011;9435;52.122;5.502;2022-12-18T01:29:41;104.78;;;30.33;;
18610;SDS011;9435;52.122;5.502;2022-12-18T01:32:08;95.10;;;28.40;;
18610;SDS011;9435;52.122;5.502;2022-12-18T01:34:36;103.00;;;29.45;;
18610;SDS011;9435;52.122;5.502;2022-12-18T01:37:07;100.13;;;28.50;;
18610;SDS011;9435;52.122;5.502;2022-12-18T01:39:36;94.82;;;28.50;;
18610;SDS011;9435;52.122;5.502;2022-12-18T01:42:09;103.65;;;29.50;;
18610;SDS011;9435;52.122;5.502;2022-12-18T01:44:54;93.53;;;27.85;;
18610;SDS011;9435;52.122;5.502;2022-12-18T01:47:30;89.93;;;27.30;;
18610;SDS011;9435;52.122;5.502;2022-12-18T01:50:02;86.45;;;26.38;;
18610;SDS011;9435;52.122;5.502;2022-12-18T01:52:33;88.00;;;26.80;;
18610;SDS011;9435;52.122;5.502;2022-12-18T01:55:06;89.85;;;27.42;;
18610;SDS011;9435;52.122;5.502;2022-12-18T01:57:35;94.30;;;27.25;;
18610;SDS011;9435;52.122;5.502;2022-12-18T02:00:04;76.63;;;26.10;;
18610;SDS011;9435;52.122;5.502;2022-12-18T02:02:34;83.32;;;26.80;;
18610;SDS011;9435;52.122;5.502;2022-12-18T02:05:01;85.10;;;25.70;;
18610;SDS011;9435;52.122;5.502;2022-12-18T02:07:32;87.75;;;26.98;;
18610;SDS011;9435;52.122;5.502;2022-12-18T02:10:11;79.28;;;25.52;;
18610;SDS011;9435;52.122;5.502;2022-12-18T02:12:43;82.85;;;26.05;;
18610;SDS011;9435;52.122;5.502;2022-12-18T02:15:15;79.15;;;24.63;;
18610;SDS011;9435;52.122;5.502;2022-12-18T02:17:52;82.38;;;26.65;;
18610;SDS011;9435;52.122;5.502;2022-12-18T02:20:24;85.68;;;25.90;;
18610;SDS011;9435;52.122;5.502;2022-12-18T02:23:04;75.97;;;24.33;;
18610;SDS011;9435;52.122;5.502;2022-12-18T02:25:56;73.53;;;24.42;;
18610;SDS011;9435;52.122;5.502;2022-12-18T02:28:40;75.05;;;23.98;;
18610;SDS011;9435;52.122;5.502;2022-12-18T02:31:13;76.63;;;25.15;;
18610;SDS011;9435;52.122;5.502;2022-12-18T02:33:43;72.82;;;23.55;;
18610;SDS011;9435;52.122;5.502;2022-12-18T02:36:12;75.78;;;24.58;;
18610;SDS011;9435;52.122;5.502;2022-12-18T02:38:42;71.00;;;23.17;;
18610;SDS011;9435;52.122;5.502;2022-12-18T02:41:13;69.72;;;23.55;;
18610;SDS011;9435;52.122;5.502;2022-12-18T02:43:45;69.18;;;23.60;;
18610;SDS011;9435;52.122;5.502;2022-12-18T02:46:23;73.28;;;23.60;;
18610;SDS011;9435;52.122;5.502;2022-12-18T02:48:55;71.78;;;23.77;;
18610;SDS011;9435;52.122;5.502;2022-12-18T02:51:37;66.82;;;22.58;;
18610;SDS011;9435;52.122;5.502;2022-12-18T02:54:15;69.05;;;22.92;;
18610;SDS011;9435;52.122;5.502;2022-12-18T02:57:03;76.15;;;24.02;;
18610;SDS011;9435;52.122;5.502;2022-12-18T02:59:39;65.88;;;22.42;;
18610;SDS011;9435;52.122;5.502;2022-12-18T03:02:15;62.40;;;21.95;;
18610;SDS011;9435;52.122;5.502;2022-12-18T03:04:47;64.95;;;22.25;;
18610;SDS011;9435;52.122;5.502;2022-12-18T03:07:23;67.22;;;21.45;;
18610;SDS011;9435;52.122;5.502;2022-12-18T03:09:54;64.72;;;21.88;;
18610;SDS011;9435;52.122;5.502;2022-12-18T03:12:24;62.28;;;22.10;;
18610;SDS011;9435;52.122;5.502;2022-12-18T03:14:57;63.95;;;21.42;;
18610;SDS011;9435;52.122;5.502;2022-12-18T03:17:28;62.47;;;21.10;;
18610;SDS011;9435;52.122;5.502;2022-12-18T03:20:00;61.38;;;21.45;;
18610;SDS011;9435;52.122;5.502;2022-12-18T03:22:32;58.67;;;21.27;;
18610;SDS011;9435;52.122;5.502;2022-12-18T03:25:01;57.60;;;21.13;;
18610;SDS011;9435;52.122;5.502;2022-12-18T03:27:33;56.70;;;20.58;;
18610;SDS011;9435;52.122;5.502;2022-12-18T03:30:04;60.22;;;21.20;;
18610;SDS011;9435;52.122;5.502;2022-12-18T03:32:36;59.25;;;20.67;;
18610;SDS011;9435;52.122;5.502;2022-12-18T03:35:06;61.05;;;20.67;;
18610;SDS011;9435;52.122;5.502;2022-12-18T03:37:35;60.55;;;20.58;;
18610;SDS011;9435;52.122;5.502;2022-12-18T03:40:03;58.35;;;20.17;;
18610;SDS011;9435;52.122;5.502;2022-12-18T03:42:33;60.72;;;20.58;;
18610;SDS011;9435;52.122;5.502;2022-12-18T03:45:08;60.55;;;20.98;;
18610;SDS011;9435;52.122;5.502;2022-12-18T03:47:38;62.95;;;20.40;;
18610;SDS011;9435;52.122;5.502;2022-12-18T03:50:11;66.60;;;20.67;;
18610;SDS011;9435;52.122;5.502;2022-12-18T03:52:42;56.42;;;19.77;;
18610;SDS011;9435;52.122;5.502;2022-12-18T03:55:14;57.13;;;19.92;;
18610;SDS011;9435;52.122;5.502;2022-12-18T03:57:44;61.55;;;21.40;;
18610;SDS011;9435;52.122;5.502;2022-12-18T04:00:13;56.95;;;20.25;;
18610;SDS011;9435;52.122;5.502;2022-12-18T04:02:44;58.22;;;20.42;;
18610;SDS011;9435;52.122;5.502;2022-12-18T04:05:15;60.67;;;19.90;;
18610;SDS011;9435;52.122;5.502;2022-12-18T04:07:43;55.53;;;19.70;;
18610;SDS011;9435;52.122;5.502;2022-12-18T04:10:12;61.42;;;19.80;;
18610;SDS011;9435;52.122;5.502;2022-12-18T04:12:41;59.28;;;20.13;;
18610;SDS011;9435;52.122;5.502;2022-12-18T04:15:10;52.15;;;19.00;;
18610;SDS011;9435;52.122;5.502;2022-12-18T04:17:38;52.58;;;18.40;;
18610;SDS011;9435;52.122;5.502;2022-12-18T04:20:09;53.10;;;18.90;;
18610;SDS011;9435;52.122;5.502;2022-12-18T04:22:36;54.92;;;19.80;;
18610;SDS011;9435;52.122;5.502;2022-12-18T04:25:04;55.20;;;18.65;;
18610;SDS011;9435;52.122;5.502;2022-12-18T04:27:31;53.42;;;19.00;;
18610;SDS011;9435;52.122;5.502;2022-12-18T04:29:58;54.25;;;18.75;;
18610;SDS011;9435;52.122;5.502;2022-12-18T04:32:27;58.08;;;19.75;;
18610;SDS011;9435;52.122;5.502;2022-12-18T04:34:54;55.00;;;19.65;;
18610;SDS011;9435;52.122;5.502;2022-12-18T04:37:21;52.92;;;18.13;;
18610;SDS011;9435;52.122;5.502;2022-12-18T04:39:48;51.63;;;18.98;;
18610;SDS011;9435;52.122;5.502;2022-12-18T04:42:15;56.35;;;19.05;;
18610;SDS011;9435;52.122;5.502;2022-12-18T04:44:42;49.40;;;17.48;;
18610;SDS011;9435;52.122;5.502;2022-12-18T04:47:09;60.35;;;20.13;;
18610;SDS011;9435;52.122;5.502;2022-12-18T04:49:38;54.42;;;18.92;;
18610;SDS011;9435;52.122;5.502;2022-12-18T04:52:05;56.70;;;19.55;;
18610;SDS011;9435;52.122;5.502;2022-12-18T04:54:33;57.42;;;19.80;;
18610;SDS011;9435;52.122;5.502;2022-12-18T04:57:00;58.10;;;19.38;;
18610;SDS011;9435;52.122;5.502;2022-12-18T04:59:27;59.97;;;20.30;;
18610;SDS011;9435;52.122;5.502;2022-12-18T05:01:54;54.75;;;19.27;;
18610;SDS011;9435;52.122;5.502;2022-12-18T05:04:21;55.10;;;19.77;;
18610;SDS011;9435;52.122;5.502;2022-12-18T05:06:50;53.50;;;18.25;;
18610;SDS011;9435;52.122;5.502;2022-12-18T05:09:17;51.70;;;18.23;;
18610;SDS011;9435;52.122;5.502;2022-12-18T05:11:44;55.58;;;18.85;;
18610;SDS011;9435;52.122;5.502;2022-12-18T05:14:11;48.40;;;17.83;;
18610;SDS011;9435;52.122;5.502;2022-12-18T05:16:38;48.00;;;17.55;;
18610;SDS011;9435;52.122;5.502;2022-12-18T05:19:05;48.88;;;18.08;;
18610;SDS011;9435;52.122;5.502;2022-12-18T05:21:32;45.58;;;17.02;;
18610;SDS011;9435;52.122;5.502;2022-12-18T05:24:01;49.15;;;16.70;;
18610;SDS011;9435;52.122;5.502;2022-12-18T05:26:28;49.03;;;17.10;;
18610;SDS011;9435;52.122;5.502;2022-12-18T05:28:55;48.65;;;17.30;;
18610;SDS011;9435;52.122;5.502;2022-12-18T05:31:22;47.00;;;18.13;;
18610;SDS011;9435;52.122;5.502;2022-12-18T05:33:49;46.85;;;17.30;;
18610;SDS011;9435;52.122;5.502;2022-12-18T05:36:16;47.65;;;16.85;;
18610;SDS011;9435;52.122;5.502;2022-12-18T05:38:43;46.50;;;15.80;;
18610;SDS011;9435;52.122;5.502;2022-12-18T05:41:12;45.55;;;16.85;;
18610;SDS011;9435;52.122;5.502;2022-12-18T05:43:39;44.03;;;16.05;;
18610;SDS011;9435;52.122;5.502;2022-12-18T05:46:07;42.25;;;16.40;;
18610;SDS011;9435;52.122;5.502;2022-12-18T05:48:37;48.60;;;16.98;;
18610;SDS011;9435;52.122;5.502;2022-12-18T05:51:05;43.85;;;16.10;;
18610;SDS011;9435;52.122;5.502;2022-12-18T05:53:33;46.55;;;17.30;;
18610;SDS011;9435;52.122;5.502;2022-12-18T05:56:01;45.42;;;16.38;;
18610;SDS011;9435;52.122;5.502;2022-12-18T05:58:30;44.63;;;16.80;;
18610;SDS011;9435;52.122;5.502;2022-12-18T06:01:05;40.78;;;15.50;;
18610;SDS011;9435;52.122;5.502;2022-12-18T06:03:35;44.85;;;16.00;;
18610;SDS011;9435;52.122;5.502;2022-12-18T06:06:02;44.03;;;15.80;;
18610;SDS011;9435;52.122;5.502;2022-12-18T06:08:30;42.47;;;16.05;;
18610;SDS011;9435;52.122;5.502;2022-12-18T06:10:57;44.53;;;16.27;;
18610;SDS011;9435;52.122;5.502;2022-12-18T06:13:24;42.85;;;16.05;;
18610;SDS011;9435;52.122;5.502;2022-12-18T06:15:52;44.78;;;16.25;;
18610;SDS011;9435;52.122;5.502;2022-12-18T06:18:19;40.97;;;16.30;;
18610;SDS011;9435;52.122;5.502;2022-12-18T06:20:53;42.53;;;15.27;;
18610;SDS011;9435;52.122;5.502;2022-12-18T06:23:21;42.80;;;15.32;;
18610;SDS011;9435;52.122;5.502;2022-12-18T06:25:48;43.43;;;15.87;;
18610;SDS011;9435;52.122;5.502;2022-12-18T06:28:15;45.58;;;17.02;;
18610;SDS011;9435;52.122;5.502;2022-12-18T06:30:43;45.97;;;16.53;;
18610;SDS011;9435;52.122;5.502;2022-12-18T06:33:11;44.88;;;15.88;;
18610;SDS011;9435;52.122;5.502;2022-12-18T06:35:39;43.75;;;15.88;;
18610;SDS011;9435;52.122;5.502;2022-12-18T06:38:06;36.65;;;14.98;;
18610;SDS011;9435;52.122;5.502;2022-12-18T06:40:33;36.58;;;14.40;;
18610;SDS011;9435;52.122;5.502;2022-12-18T06:43:02;46.50;;;16.35;;
18610;SDS011;9435;52.122;5.502;2022-12-18T06:45:29;40.75;;;16.58;;
18610;SDS011;9435;52.122;5.502;2022-12-18T06:47:56;41.13;;;15.95;;
18610;SDS011;9435;52.122;5.502;2022-12-18T06:50:25;41.63;;;15.45;;
18610;SDS011;9435;52.122;5.502;2022-12-18T06:52:52;43.80;;;15.65;;
18610;SDS011;9435;52.122;5.502;2022-12-18T06:55:19;43.25;;;15.85;;
18610;SDS011;9435;52.122;5.502;2022-12-18T06:57:46;37.67;;;14.37;;
18610;SDS011;9435;52.122;5.502;2022-12-18T07:00:13;38.73;;;16.10;;
18610;SDS011;9435;52.122;5.502;2022-12-18T07:02:41;41.60;;;15.33;;
18610;SDS011;9435;52.122;5.502;2022-12-18T07:05:08;42.95;;;15.23;;
18610;SDS011;9435;52.122;5.502;2022-12-18T07:07:36;39.15;;;14.85;;
18610;SDS011;9435;52.122;5.502;2022-12-18T07:10:04;40.47;;;15.27;;
18610;SDS011;9435;52.122;5.502;2022-12-18T07:12:31;40.80;;;14.55;;
18610;SDS011;9435;52.122;5.502;2022-12-18T07:14:58;36.23;;;15.33;;
18610;SDS011;9435;52.122;5.502;2022-12-18T07:17:25;43.80;;;15.48;;
18610;SDS011;9435;52.122;5.502;2022-12-18T07:19:52;37.43;;;14.20;;
18610;SDS011;9435;52.122;5.502;2022-12-18T07:22:19;38.90;;;15.30;;
18610;SDS011;9435;52.122;5.502;2022-12-18T07:24:48;36.97;;;14.47;;
18610;SDS011;9435;52.122;5.502;2022-12-18T07:27:15;43.07;;;15.97;;
18610;SDS011;9435;52.122;5.502;2022-12-18T07:29:42;38.90;;;15.40;;
18610;SDS011;9435;52.122;5.502;2022-12-18T07:32:09;40.50;;;15.37;;
18610;SDS011;9435;52.122;5.502;2022-12-18T07:34:36;36.90;;;14.90;;
18610;SDS011;9435;52.122;5.502;2022-12-18T07:37:03;40.30;;;15.73;;
18610;SDS011;9435;52.122;5.502;2022-12-18T07:39:30;41.23;;;16.13;;
18610;SDS011;9435;52.122;5.502;2022-12-18T07:41:59;40.03;;;15.82;;
18610;SDS011;9435;52.122;5.502;2022-12-18T07:44:43;42.80;;;15.77;;
18610;SDS011;9435;52.122;5.502;2022-12-18T07:47:10;40.83;;;16.07;;
18610;SDS011;9435;52.122;5.502;2022-12-18T07:49:37;38.93;;;15.57;;
18610;SDS011;9435;52.122;5.502;2022-12-18T07:52:04;43.00;;;16.10;;
18610;SDS011;9435;52.122;5.502;2022-12-18T07:54:31;40.50;;;15.43;;
18610;SDS011;9435;52.122;5.502;2022-12-18T07:57:00;38.50;;;15.90;;
18610;SDS011;9435;52.122;5.502;2022-12-18T07:59:27;38.03;;;16.17;;
18610;SDS011;9435;52.122;5.502;2022-12-18T08:01:54;38.20;;;15.60;;
18610;SDS011;9435;52.122;5.502;2022-12-18T08:04:21;40.60;;;16.57;;
18610;SDS011;9435;52.122;5.502;2022-12-18T08:06:48;42.43;;;16.80;;
18610;SDS011;9435;52.122;5.502;2022-12-18T08:09:15;40.00;;;16.47;;
18610;SDS011;9435;52.122;5.502;2022-12-18T08:11:42;45.23;;;17.43;;
18610;SDS011;9435;52.122;5.502;2022-12-18T08:14:11;42.07;;;16.57;;
18610;SDS011;9435;52.122;5.502;2022-12-18T08:16:38;41.50;;;17.17;;
18610;SDS011;9435;52.122;5.502;2022-12-18T08:19:05;39.10;;;16.27;;
18610;SDS011;9435;52.122;5.502;2022-12-18T08:21:32;49.10;;;17.87;;
18610;SDS011;9435;52.122;5.502;2022-12-18T08:24:00;45.83;;;17.63;;
18610;SDS011;9435;52.122;5.502;2022-12-18T08:26:28;46.67;;;17.38;;
18610;SDS011;9435;52.122;5.502;2022-12-18T08:28:57;44.10;;;17.33;;
18610;SDS011;9435;52.122;5.502;2022-12-18T08:31:27;45.72;;;17.52;;
18610;SDS011;9435;52.122;5.502;2022-12-18T08:33:55;41.43;;;17.03;;
18610;SDS011;9435;52.122;5.502;2022-12-18T08:36:23;44.72;;;18.23;;
18610;SDS011;9435;52.122;5.502;2022-12-18T08:38:51;41.90;;;16.88;;
18610;SDS011;9435;52.122;5.502;2022-12-18T08:41:18;42.15;;;16.92;;
18610;SDS011;9435;52.122;5.502;2022-12-18T08:43:46;42.05;;;17.15;;
18610;SDS011;9435;52.122;5.502;2022-12-18T08:46:35;44.40;;;17.10;;
18610;SDS011;9435;52.122;5.502;2022-12-18T08:49:04;42.65;;;16.27;;
18610;SDS011;9435;52.122;5.502;2022-12-18T08:51:32;44.63;;;17.33;;
18610;SDS011;9435;52.122;5.502;2022-12-18T08:53:59;43.23;;;16.90;;
18610;SDS011;9435;52.122;5.502;2022-12-18T08:56:26;41.38;;;16.63;;
18610;SDS011;9435;52.122;5.502;2022-12-18T08:58:53;41.37;;;17.07;;
18610;SDS011;9435;52.122;5.502;2022-12-18T09:01:21;42.53;;;16.75;;
18610;SDS011;9435;52.122;5.502;2022-12-18T09:03:50;39.65;;;16.27;;
18610;SDS011;9435;52.122;5.502;2022-12-18T09:06:17;43.20;;;16.73;;
18610;SDS011;9435;52.122;5.502;2022-12-18T09:08:45;40.60;;;16.10;;
18610;SDS011;9435;52.122;5.502;2022-12-18T09:11:13;40.63;;;15.70;;
18610;SDS011;9435;52.122;5.502;2022-12-18T09:13:41;40.55;;;16.73;;
18610;SDS011;9435;52.122;5.502;2022-12-18T09:16:08;39.58;;;15.75;;
18610;SDS011;9435;52.122;5.502;2022-12-18T09:18:36;37.38;;;15.50;;
18610;SDS011;9435;52.122;5.502;2022-12-18T09:21:11;37.95;;;15.88;;
18610;SDS011;9435;52.122;5.502;2022-12-18T09:23:39;35.13;;;15.55;;
18610;SDS011;9435;52.122;5.502;2022-12-18T09:26:07;40.15;;;15.93;;
18610;SDS011;9435;52.122;5.502;2022-12-18T09:28:34;38.28;;;16.08;;
18610;SDS011;9435;52.122;5.502;2022-12-18T09:31:03;41.28;;;15.27;;
18610;SDS011;9435;52.122;5.502;2022-12-18T09:33:32;37.28;;;14.98;;
18610;SDS011;9435;52.122;5.502;2022-12-18T09:36:00;33.83;;;14.27;;
18610;SDS011;9435;52.122;5.502;2022-12-18T09:38:29;34.00;;;14.40;;
18610;SDS011;9435;52.122;5.502;2022-12-18T09:40:57;33.90;;;14.07;;
18610;SDS011;9435;52.122;5.502;2022-12-18T09:43:30;34.25;;;13.73;;
18610;SDS011;9435;52.122;5.502;2022-12-18T09:46:04;31.73;;;13.20;;
18610;SDS011;9435;52.122;5.502;2022-12-18T09:48:35;28.52;;;12.38;;
18610;SDS011;9435;52.122;5.502;2022-12-18T09:51:07;29.45;;;12.60;;
18610;SDS011;9435;52.122;5.502;2022-12-18T09:53:41;35.67;;;12.65;;
18610;SDS011;9435;52.122;5.502;2022-12-18T09:56:15;30.17;;;12.07;;
18610;SDS011;9435;52.122;5.502;2022-12-18T09:58:48;29.95;;;12.48;;
18610;SDS011;9435;52.122;5.502;2022-12-18T10:01:19;28.20;;;11.70;;
18610;SDS011;9435;52.122;5.502;2022-12-18T10:03:49;25.98;;;11.40;;
18610;SDS011;9435;52.122;5.502;2022-12-18T10:06:18;29.92;;;12.68;;
18610;SDS011;9435;52.122;5.502;2022-12-18T10:08:51;27.10;;;11.80;;
18610;SDS011;9435;52.122;5.502;2022-12-18T10:11:29;30.23;;;12.18;;
18610;SDS011;9435;52.122;5.502;2022-12-18T10:14:06;29.45;;;12.57;;
18610;SDS011;9435;52.122;5.502;2022-12-18T10:16:43;27.98;;;12.00;;
18610;SDS011;9435;52.122;5.502;2022-12-18T10:19:24;31.05;;;11.82;;
18610;SDS011;9435;52.122;5.502;2022-12-18T10:22:03;25.02;;;10.63;;
18610;SDS011;9435;52.122;5.502;2022-12-18T10:24:43;26.30;;;11.02;;
18610;SDS011;9435;52.122;5.502;2022-12-18T10:27:18;30.13;;;11.98;;
18610;SDS011;9435;52.122;5.502;2022-12-18T10:29:49;25.88;;;11.02;;
18610;SDS011;9435;52.122;5.502;2022-12-18T10:32:17;25.80;;;11.23;;
18610;SDS011;9435;52.122;5.502;2022-12-18T10:34:46;26.83;;;10.73;;
18610;SDS011;9435;52.122;5.502;2022-12-18T10:37:15;28.48;;;11.60;;
18610;SDS011;9435;52.122;5.502;2022-12-18T10:39:46;27.90;;;10.88;;
18610;SDS011;9435;52.122;5.502;2022-12-18T10:42:38;24.98;;;10.43;;
18610;SDS011;9435;52.122;5.502;2022-12-18T10:45:10;24.05;;;10.35;;
18610;SDS011;9435;52.122;5.502;2022-12-18T10:47:41;25.95;;;10.55;;
18610;SDS011;9435;52.122;5.502;2022-12-18T10:50:18;23.95;;;10.13;;
18610;SDS011;9435;52.122;5.502;2022-12-18T10:52:57;22.98;;;9.70;;
18610;SDS011;9435;52.122;5.502;2022-12-18T10:55:30;21.48;;;9.85;;
18610;SDS011;9435;52.122;5.502;2022-12-18T10:58:13;25.45;;;10.68;;
18610;SDS011;9435;52.122;5.502;2022-12-18T11:00:51;23.50;;;10.05;;
18610;SDS011;9435;52.122;5.502;2022-12-18T11:03:31;25.83;;;10.30;;
18610;SDS011;9435;52.122;5.502;2022-12-18T11:06:07;24.85;;;10.07;;
18610;SDS011;9435;52.122;5.502;2022-12-18T11:08:36;25.60;;;10.23;;
18610;SDS011;9435;52.122;5.502;2022-12-18T11:11:07;22.17;;;10.02;;
18610;SDS011;9435;52.122;5.502;2022-12-18T11:13:42;24.77;;;10.30;;
18610;SDS011;9435;52.122;5.502;2022-12-18T11:16:22;23.88;;;9.80;;
18610;SDS011;9435;52.122;5.502;2022-12-18T11:18:50;22.65;;;10.05;;
18610;SDS011;9435;52.122;5.502;2022-12-18T11:21:17;25.88;;;10.38;;
18610;SDS011;9435;52.122;5.502;2022-12-18T11:23:46;23.58;;;9.93;;
18610;SDS011;9435;52.122;5.502;2022-12-18T11:26:16;26.50;;;10.30;;
18610;SDS011;9435;52.122;5.502;2022-12-18T11:28:44;29.40;;;10.25;;
18610;SDS011;9435;52.122;5.502;2022-12-18T11:31:23;24.20;;;9.98;;
18610;SDS011;9435;52.122;5.502;2022-12-18T11:34:02;25.10;;;10.00;;
18610;SDS011;9435;52.122;5.502;2022-12-18T11:36:32;21.38;;;9.73;;
18610;SDS011;9435;52.122;5.502;2022-12-18T11:39:04;24.45;;;10.07;;
18610;SDS011;9435;52.122;5.502;2022-12-18T11:41:39;22.75;;;9.77;;
18610;SDS011;9435;52.122;5.502;2022-12-18T11:44:29;24.85;;;10.48;;
18610;SDS011;9435;52.122;5.502;2022-12-18T11:47:09;23.35;;;10.45;;
18610;SDS011;9435;52.122;5.502;2022-12-18T11:49:42;25.65;;;10.60;;
18610;SDS011;9435;52.122;5.502;2022-12-18T11:52:10;24.98;;;10.27;;
18610;SDS011;9435;52.122;5.502;2022-12-18T11:54:44;23.55;;;9.77;;
18610;SDS011;9435;52.122;5.502;2022-12-18T11:57:15;24.80;;;10.30;;
18610;SDS011;9435;52.122;5.502;2022-12-18T12:00:01;24.15;;;10.07;;
18610;SDS011;9435;52.122;5.502;2022-12-18T12:02:39;23.40;;;9.77;;
18610;SDS011;9435;52.122;5.502;2022-12-18T12:05:21;23.20;;;9.95;;
18610;SDS011;9435;52.122;5.502;2022-12-18T12:08:05;21.45;;;10.02;;
18610;SDS011;9435;52.122;5.502;2022-12-18T12:10:42;23.30;;;10.32;;
18610;SDS011;9435;52.122;5.502;2022-12-18T12:13:23;25.80;;;10.45;;
18610;SDS011;9435;52.122;5.502;2022-12-18T12:16:02;26.15;;;10.45;;
18610;SDS011;9435;52.122;5.502;2022-12-18T12:18:47;25.88;;;11.10;;
18610;SDS011;9435;52.122;5.502;2022-12-18T12:21:33;23.52;;;10.30;;
18610;SDS011;9435;52.122;5.502;2022-12-18T12:24:10;22.58;;;10.15;;
18610;SDS011;9435;52.122;5.502;2022-12-18T12:26:49;23.92;;;10.85;;
18610;SDS011;9435;52.122;5.502;2022-12-18T12:29:30;26.13;;;10.73;;
18610;SDS011;9435;52.122;5.502;2022-12-18T12:32:11;23.23;;;10.80;;
18610;SDS011;9435;52.122;5.502;2022-12-18T12:34:52;24.75;;;10.65;;
18610;SDS011;9435;52.122;5.502;2022-12-18T12:37:30;26.25;;;11.02;;
18610;SDS011;9435;52.122;5.502;2022-12-18T12:40:06;22.63;;;10.55;;
18610;SDS011;9435;52.122;5.502;2022-12-18T12:42:38;24.20;;;10.75;;
18610;SDS011;9435;52.122;5.502;2022-12-18T12:45:30;25.27;;;11.15;;
18610;SDS011;9435;52.122;5.502;2022-12-18T12:48:03;26.38;;;11.55;;
18610;SDS011;9435;52.122;5.502;2022-12-18T12:50:34;25.38;;;11.20;;
18610;SDS011;9435;52.122;5.502;2022-12-18T12:53:05;27.08;;;10.80;;
18610;SDS011;9435;52.122;5.502;2022-12-18T12:55:35;28.85;;;10.98;;
18610;SDS011;9435;52.122;5.502;2022-12-18T12:58:05;26.45;;;11.30;;
18610;SDS011;9435;52.122;5.502;2022-12-18T13:00:41;26.75;;;11.40;;
18610;SDS011;9435;52.122;5.502;2022-12-18T13:03:20;25.58;;;11.77;;
18610;SDS011;9435;52.122;5.502;2022-12-18T13:05:59;25.17;;;11.55;;
18610;SDS011;9435;52.122;5.502;2022-12-18T13:08:34;24.58;;;11.45;;
18610;SDS011;9435;52.122;5.502;2022-12-18T13:11:28;24.88;;;11.02;;
18610;SDS011;9435;52.122;5.502;2022-12-18T13:14:20;24.42;;;11.02;;
18610;SDS011;9435;52.122;5.502;2022-12-18T13:16:50;24.83;;;10.80;;
18610;SDS011;9435;52.122;5.502;2022-12-18T13:19:22;24.00;;;10.73;;
18610;SDS011;9435;52.122;5.502;2022-12-18T13:21:53;24.20;;;10.98;;
18610;SDS011;9435;52.122;5.502;2022-12-18T13:24:23;25.02;;;11.52;;
18610;SDS011;9435;52.122;5.502;2022-12-18T13:26:53;27.08;;;12.10;;
18610;SDS011;9435;52.122;5.502;2022-12-18T13:32:22;25.48;;;11.35;;
18610;SDS011;9435;52.122;5.502;2022-12-18T13:37:51;28.30;;;10.98;;
18610;SDS011;9435;52.122;5.502;2022-12-18T13:43:32;24.65;;;11.40;;
18610;SDS011;9435;52.122;5.502;2022-12-18T13:46:23;26.60;;;11.65;;
18610;SDS011;9435;52.122;5.502;2022-12-18T13:48:58;24.70;;;11.50;;
18610;SDS011;9435;52.122;5.502;2022-12-18T13:51:29;27.08;;;11.95;;
18610;SDS011;9435;52.122;5.502;2022-12-18T13:53:59;26.02;;;11.40;;
18610;SDS011;9435;52.122;5.502;2022-12-18T13:56:29;24.60;;;11.07;;
18610;SDS011;9435;52.122;5.502;2022-12-18T13:59:15;27.35;;;11.43;;
18610;SDS011;9435;52.122;5.502;2022-12-18T14:01:46;25.98;;;11.93;;
18610;SDS011;9435;52.122;5.502;2022-12-18T14:04:21;26.45;;;11.70;;
18610;SDS011;9435;52.122;5.502;2022-12-18T14:06:51;28.30;;;11.63;;
18610;SDS011;9435;52.122;5.502;2022-12-18T14:09:23;28.67;;;12.20;;
18610;SDS011;9435;52.122;5.502;2022-12-18T14:11:52;31.60;;;12.00;;
18610;SDS011;9435;52.122;5.502;2022-12-18T14:14:43;26.98;;;11.82;;
18610;SDS011;9435;52.122;5.502;2022-12-18T14:17:13;27.65;;;12.10;;
18610;SDS011;9435;52.122;5.502;2022-12-18T14:19:44;27.38;;;11.73;;
18610;SDS011;9435;52.122;5.502;2022-12-18T14:22:18;27.50;;;11.73;;
18610;SDS011;9435;52.122;5.502;2022-12-18T14:24:47;24.88;;;10.80;;
18610;SDS011;9435;52.122;5.502;2022-12-18T14:27:41;28.48;;;12.25;;
18610;SDS011;9435;52.122;5.502;2022-12-18T14:33:03;26.52;;;11.20;;
18610;SDS011;9435;52.122;5.502;2022-12-18T14:35:33;26.30;;;11.18;;
18610;SDS011;9435;52.122;5.502;2022-12-18T14:38:20;27.42;;;12.07;;
18610;SDS011;9435;52.122;5.502;2022-12-18T14:40:52;28.85;;;11.60;;
18610;SDS011;9435;52.122;5.502;2022-12-18T14:43:21;28.58;;;11.95;;
18610;SDS011;9435;52.122;5.502;2022-12-18T14:45:48;29.65;;;12.27;;
18610;SDS011;9435;52.122;5.502;2022-12-18T14:48:17;25.50;;;11.45;;
18610;SDS011;9435;52.122;5.502;2022-12-18T14:50:53;28.17;;;12.57;;
18610;SDS011;9435;52.122;5.502;2022-12-18T14:53:23;26.40;;;11.88;;
18610;SDS011;9435;52.122;5.502;2022-12-18T14:56:01;27.02;;;12.00;;
18610;SDS011;9435;52.122;5.502;2022-12-18T14:58:30;28.25;;;11.93;;
18610;SDS011;9435;52.122;5.502;2022-12-18T15:00:57;27.25;;;11.82;;
18610;SDS011;9435;52.122;5.502;2022-12-18T15:03:25;33.22;;;12.68;;
18610;SDS011;9435;52.122;5.502;2022-12-18T15:05:54;27.77;;;12.55;;
18610;SDS011;9435;52.122;5.502;2022-12-18T15:08:29;30.42;;;12.65;;